Port Huron, MI

16:51 EDT 24. Září 2016 (GMT -0400)
Port Huron Township | | Change Station

Výška 594 ft 43.00 °N, 82.48 °W | Updated 1 minute ago

Clear
Jasno
62.1 °F
Pocit jako 62.1 °F
S
1.0
Vítr proměnlivý Vítr od ZJZ
Gusts 7.0 mil/h

Dnes
Vysoké -- | Nízké -- °F
--% Možnost srážek
Včera
Vysoké -- | Nízké -- °F
Precip. -- inčů
Tlak 30.24 inčů
Viditelnost 10.0 mílí
Zataženo Jasno
Rosný bod 49 °F
Vlhkost 62%
Dešťové srážky 0.00 inčů
Sněhová pokrývka Není k dispozici
7:19 AM 7:22 PM
Ubývající srpek, 34% visible
METAR KPHN 242035Z AUTO 36005KT 10SM CLR 17/07 A3024 RMK AO2
Tlak 30.24 inčů
Viditelnost 10.0 mílí
Zataženo Jasno
Rosný bod 49 °F
Vlhkost 62%
Dešťové srážky 0.00 inčů
Sněhová pokrývka Není k dispozici
7:19 AM 7:22 PM
Ubývající srpek, 34% visible
METAR KPHN 242035Z AUTO 36005KT 10SM CLR 17/07 A3024 RMK AO2

10-Day Weather Forecast

Almanac

Astronomie

Sep. 24, 2016 Východ Západ
Skutečný čas
Občanský soumrak
Námořní soumrak
Astronomický soumrak
Měsíc
Délka denního světla
Délka dne
Tomorrow will be .
, % of the Moon is Illuminated

Dnešní extrémy

State Highs State Lows

Community

WunderPhotos

Upload Photos

1,941,423 snímků staženo!

WunderBlog® & News

Nearby

Kvalita ovzduší

  Kvalita ovzduší Index kvality ovzduší Polutant
Not available.

Výška sněhu

Station Hloubka Nadmořská výška

Seizmická činnost

Město Distance Mag. Čas & datum
Minimální zobrazený rozsah je 2.5.

Pobřežní teplota vody

Lokalita Teplota

Stations

Poblíž povětrnostní stanice

Lokace stanice Tepl. Ochlazování větrem Rosný bod Vlhkost Vítr Precip. Výška Čas hlášení Typ
                   

Watches & Warnings

There are currently no watches in effect.